createdAt,value
2022-12-26T00:02:35.651Z,99010.28
2022-12-26T00:05:22.441Z,99021.47
2022-12-26T00:08:08.681Z,99037.94
2022-12-26T00:10:55.033Z,99020.03
2022-12-26T00:13:42.562Z,99033.00
2022-12-26T00:16:29.160Z,99016.63
2022-12-26T00:19:15.840Z,99032.22
2022-12-26T00:22:01.980Z,99015.78
2022-12-26T00:24:48.466Z,99021.75
2022-12-26T00:27:34.839Z,99024.22
2022-12-26T00:30:21.288Z,99018.03
2022-12-26T00:33:07.758Z,99035.88
2022-12-26T00:36:00.196Z,99023.63
2022-12-26T00:38:47.813Z,99029.41
2022-12-26T00:41:34.461Z,99026.94
2022-12-26T00:44:20.701Z,99022.56
2022-12-26T00:47:07.371Z,99024.88
2022-12-26T00:50:12.631Z,99029.88
2022-12-26T00:53:01.026Z,99031.53
2022-12-26T00:55:47.254Z,99039.41
2022-12-26T00:58:33.969Z,99035.81
2022-12-26T01:01:23.151Z,99031.34
2022-12-26T01:04:09.971Z,99021.06
2022-12-26T01:06:56.163Z,99024.47
2022-12-26T01:09:42.993Z,99019.47
2022-12-26T01:12:29.159Z,99018.59
2022-12-26T01:15:15.571Z,99021.97
2022-12-26T01:18:02.077Z,99015.97
2022-12-26T01:20:49.040Z,99023.78
2022-12-26T01:23:35.673Z,99004.19
2022-12-26T01:26:22.034Z,99029.09
2022-12-26T01:29:09.261Z,99018.00
2022-12-26T01:31:55.841Z,99012.81
2022-12-26T01:34:42.542Z,99023.16
2022-12-26T01:37:28.802Z,99023.09
2022-12-26T01:40:15.070Z,99034.25
2022-12-26T01:43:01.277Z,99010.91
2022-12-26T01:45:51.110Z,99016.97
2022-12-26T01:48:37.535Z,99037.53
2022-12-26T01:51:28.569Z,99034.25
2022-12-26T01:54:40.081Z,99032.50
2022-12-26T01:57:31.081Z,99038.59
2022-12-26T02:00:17.632Z,99050.53
2022-12-26T02:03:25.020Z,99043.72
2022-12-26T02:06:14.612Z,99038.66
2022-12-26T02:09:01.694Z,99005.09
2022-12-26T02:12:34.129Z,99042.13
2022-12-26T02:15:02.736Z,99036.06
2022-12-26T02:17:49.659Z,99014.28
2022-12-26T02:20:59.422Z,99010.88
2022-12-26T02:23:59.870Z,99024.72
2022-12-26T02:27:22.345Z,99037.69
2022-12-26T02:30:43.022Z,99044.72
2022-12-26T02:33:57.362Z,99049.09
2022-12-26T02:36:59.156Z,99037.06
2022-12-26T02:40:00.461Z,99046.63
2022-12-26T02:43:03.018Z,99050.81
2022-12-26T02:46:43.823Z,99053.63
2022-12-26T02:49:58.855Z,99052.81
2022-12-26T02:53:35.541Z,99053.63
2022-12-26T02:56:54.460Z,99052.72
2022-12-26T03:00:25.327Z,99050.97
2022-12-26T03:03:40.919Z,99051.88
2022-12-26T03:06:50.611Z,99036.34
2022-12-26T03:09:57.566Z,99019.00
2022-12-26T03:13:11.132Z,99039.84
2022-12-26T03:16:27.340Z,99049.28
2022-12-26T03:19:15.179Z,99021.88
2022-12-26T03:22:23.270Z,99034.88
2022-12-26T03:26:10.451Z,99033.94
2022-12-26T03:29:19.005Z,99019.22
2022-12-26T03:32:08.926Z,99020.13
2022-12-26T03:34:55.511Z,98994.22
2022-12-26T03:37:50.347Z,99011.53
2022-12-26T03:41:23.230Z,99010.75
2022-12-26T03:44:53.858Z,99010.81
2022-12-26T03:48:25.610Z,99016.88
2022-12-26T03:51:43.082Z,99025.50
2022-12-26T03:55:29.296Z,99027.31
2022-12-26T03:58:41.117Z,99035.91
2022-12-26T04:01:59.800Z,99021.31
2022-12-26T04:05:05.107Z,99027.38
2022-12-26T04:08:18.830Z,99014.47
2022-12-26T04:11:31.870Z,99035.84
2022-12-26T04:14:52.061Z,99036.75
2022-12-26T04:18:05.967Z,99044.66
2022-12-26T04:21:29.599Z,99046.38
2022-12-26T04:24:49.024Z,99053.28
2022-12-26T04:27:54.075Z,99030.13
2022-12-26T04:31:03.980Z,99029.28
2022-12-26T04:34:15.056Z,99037.88
2022-12-26T04:37:23.251Z,99034.44
2022-12-26T04:40:34.026Z,99007.00
2022-12-26T04:43:48.604Z,99017.34
2022-12-26T04:46:41.027Z,99033.66
2022-12-26T04:49:46.577Z,99015.50
2022-12-26T04:52:51.005Z,99019.94
2022-12-26T04:55:37.319Z,99011.19
2022-12-26T04:58:24.304Z,99008.84
2022-12-26T05:01:29.566Z,99025.34
2022-12-26T05:04:36.597Z,99027.00
2022-12-26T05:07:44.105Z,99030.50
2022-12-26T05:10:30.294Z,99017.47
2022-12-26T05:13:16.700Z,99037.34
2022-12-26T05:16:21.935Z,99032.94
2022-12-26T05:19:32.139Z,99015.66
2022-12-26T05:22:37.282Z,99040.81
2022-12-26T05:25:51.707Z,99032.25
2022-12-26T05:28:43.645Z,99026.34
2022-12-26T05:31:35.523Z,99022.06
2022-12-26T05:34:22.842Z,99021.16
2022-12-26T05:37:09.381Z,99026.25
2022-12-26T05:39:55.656Z,99034.75
2022-12-26T05:42:41.908Z,99048.66
2022-12-26T05:45:28.511Z,99046.91
2022-12-26T05:48:14.756Z,99044.31
2022-12-26T05:51:03.356Z,99035.66
2022-12-26T05:53:50.966Z,99041.59
2022-12-26T05:56:37.226Z,99044.16
2022-12-26T05:59:23.488Z,99032.03
2022-12-26T06:02:09.791Z,99058.78
2022-12-26T06:04:56.143Z,99057.06
2022-12-26T06:07:42.516Z,99030.44
2022-12-26T06:10:29.738Z,99046.84
2022-12-26T06:13:16.048Z,99048.50
2022-12-26T06:16:07.860Z,99027.00
2022-12-26T06:18:55.322Z,99029.56
2022-12-26T06:21:41.880Z,99039.88
2022-12-26T06:24:28.170Z,99039.03
2022-12-26T06:27:14.777Z,99051.94
2022-12-26T06:34:27.756Z,99020.13
2022-12-26T06:37:14.220Z,99035.75
2022-12-26T06:40:00.833Z,99032.38
2022-12-26T06:42:47.366Z,99033.34
2022-12-26T06:45:34.326Z,99042.94
2022-12-26T06:48:20.490Z,99033.47
2022-12-26T06:51:10.855Z,99036.00
2022-12-26T06:54:00.143Z,99054.13
2022-12-26T06:56:46.283Z,99047.25
2022-12-26T06:59:32.842Z,99054.19
2022-12-26T07:02:19.366Z,99029.16
2022-12-26T07:05:06.362Z,99062.81
2022-12-26T07:07:53.298Z,99066.34
2022-12-26T07:10:39.680Z,99078.47
2022-12-26T07:13:26.132Z,99064.66
2022-12-26T07:16:13.002Z,99058.63
2022-12-26T07:19:00.283Z,99062.88
2022-12-26T07:21:47.292Z,99060.25
2022-12-26T07:24:33.764Z,99073.28
2022-12-26T07:27:19.974Z,99082.66
2022-12-26T07:30:06.969Z,99085.31
2022-12-26T07:32:53.094Z,99083.59
2022-12-26T07:35:39.852Z,99080.09
2022-12-26T07:38:25.964Z,99080.94
2022-12-26T07:41:31.580Z,99070.59
2022-12-26T07:44:19.531Z,99061.03
2022-12-26T07:47:06.226Z,99088.63
2022-12-26T07:49:52.566Z,99088.63
2022-12-26T07:52:38.839Z,99056.75
2022-12-26T07:55:25.123Z,99076.59
2022-12-26T07:58:11.308Z,99065.31
2022-12-26T08:01:05.003Z,99082.59
2022-12-26T08:03:53.139Z,99092.03
2022-12-26T08:06:39.464Z,99091.16
2022-12-26T08:09:25.700Z,99083.38
2022-12-26T08:12:13.114Z,99106.75
2022-12-26T08:14:59.511Z,99104.06
2022-12-26T08:17:46.620Z,99104.06
2022-12-26T08:20:33.744Z,99104.09
2022-12-26T08:23:20.169Z,99118.75
2022-12-26T08:26:08.876Z,99117.94
2022-12-26T08:28:56.837Z,99125.66
2022-12-26T08:31:43.427Z,99137.72
2022-12-26T08:34:34.338Z,99149.88
2022-12-26T08:37:21.009Z,99138.03
2022-12-26T08:40:09.358Z,99176.91
2022-12-26T08:43:12.200Z,99166.59
2022-12-26T08:46:06.996Z,99187.28
2022-12-26T08:48:53.458Z,99202.00
2022-12-26T08:51:40.296Z,99201.97
2022-12-26T08:54:26.587Z,99201.09
2022-12-26T08:57:13.799Z,99195.88
2022-12-26T09:00:00.387Z,99222.63
2022-12-26T09:02:47.882Z,99204.53
2022-12-26T09:05:34.404Z,99188.13
2022-12-26T09:08:20.779Z,99206.25
2022-12-26T09:11:13.587Z,99198.47
2022-12-26T09:14:02.291Z,99214.88
2022-12-26T09:16:51.041Z,99233.00
2022-12-26T09:19:37.675Z,99227.78
2022-12-26T09:22:42.782Z,99236.44
2022-12-26T09:25:29.229Z,99239.88
2022-12-26T09:28:15.478Z,99236.38
2022-12-26T09:31:04.513Z,99214.81
2022-12-26T09:33:52.427Z,99242.41
2022-12-26T09:36:39.016Z,99250.16
2022-12-26T09:39:25.551Z,99260.53
2022-12-26T09:42:48.424Z,99263.94
2022-12-26T09:45:49.310Z,99237.19
2022-12-26T09:48:45.848Z,99250.97
2022-12-26T09:51:35.294Z,99262.22
2022-12-26T09:54:39.188Z,99279.50
2022-12-26T09:57:39.904Z,99276.00
2022-12-26T10:00:39.463Z,99273.41
2022-12-26T10:03:26.856Z,99255.31
2022-12-26T10:06:15.016Z,99269.97
2022-12-26T10:09:45.795Z,99269.09
2022-12-26T10:12:50.506Z,99265.69
2022-12-26T10:15:39.657Z,99279.47
2022-12-26T10:18:44.485Z,99261.38
2022-12-26T10:22:05.392Z,99272.59
2022-12-26T10:24:52.197Z,99274.31
2022-12-26T10:27:42.640Z,99276.06
2022-12-26T10:30:35.795Z,99266.56
2022-12-26T10:33:53.445Z,99278.66
2022-12-26T10:36:46.000Z,99299.31
2022-12-26T10:39:45.229Z,99285.50
2022-12-26T10:42:37.814Z,99280.31
2022-12-26T10:45:43.275Z,99276.84
2022-12-26T10:48:29.810Z,99285.50
2022-12-26T10:51:16.712Z,99288.94
2022-12-26T10:54:03.101Z,99243.13
2022-12-26T10:56:51.697Z,99273.41
2022-12-26T10:59:46.018Z,99270.78
2022-12-26T11:02:32.996Z,99266.47
2022-12-26T11:08:47.550Z,99259.53
2022-12-26T11:12:02.078Z,99249.22
2022-12-26T11:14:48.905Z,99240.66
2022-12-26T11:17:43.378Z,99242.44
2022-12-26T11:20:30.831Z,99243.31
2022-12-26T11:23:25.859Z,99221.78
2022-12-26T11:26:18.514Z,99232.16
2022-12-26T11:29:16.831Z,99242.53
2022-12-26T11:32:04.835Z,99244.28
2022-12-26T11:34:51.301Z,99187.34
2022-12-26T11:37:44.320Z,99243.44
2022-12-26T11:40:39.134Z,99211.50
2022-12-26T11:43:27.165Z,99237.38
2022-12-26T11:46:13.990Z,99254.66
2022-12-26T11:49:01.571Z,99244.31
2022-12-26T11:51:52.872Z,99256.38
2022-12-26T11:54:50.946Z,99256.38
2022-12-26T11:57:37.288Z,99240.84
2022-12-26T12:00:24.961Z,99241.69
2022-12-26T12:03:16.113Z,99224.44
2022-12-26T12:06:21.222Z,99227.00
2022-12-26T12:09:23.374Z,99214.03
2022-12-26T12:12:19.005Z,99232.13
2022-12-26T12:15:22.889Z,99212.19
2022-12-26T12:18:38.681Z,99224.25
2022-12-26T12:22:05.397Z,99226.81
2022-12-26T12:25:10.559Z,99238.00
2022-12-26T12:28:19.062Z,99239.81
2022-12-26T12:31:42.901Z,99225.16
2022-12-26T12:34:45.392Z,99251.97
2022-12-26T12:37:46.894Z,99236.47
2022-12-26T12:41:16.380Z,99238.22
2022-12-26T12:44:26.887Z,99224.44
2022-12-26T12:47:24.317Z,99227.03
2022-12-26T12:50:25.845Z,99233.94
2022-12-26T12:53:49.422Z,99225.31
2022-12-26T12:56:48.654Z,99223.56
2022-12-26T12:59:52.350Z,99210.63
2022-12-26T13:02:41.914Z,99230.47
2022-12-26T13:06:05.543Z,99221.81
2022-12-26T13:09:04.196Z,99215.78
2022-12-26T13:12:01.420Z,99235.63
2022-12-26T13:14:56.222Z,99218.38
2022-12-26T13:17:48.059Z,99208.91
2022-12-26T13:20:42.542Z,99209.75
2022-12-26T13:23:59.517Z,99187.28
2022-12-26T13:26:54.573Z,99214.03
2022-12-26T13:29:44.339Z,99209.69
2022-12-26T13:32:33.879Z,99204.53
2022-12-26T13:35:54.343Z,99213.09
2022-12-26T13:38:56.432Z,99226.94
2022-12-26T13:42:16.091Z,99189.84
2022-12-26T13:45:39.177Z,99209.72
2022-12-26T13:48:32.558Z,99209.72
2022-12-26T13:51:40.888Z,99207.13
2022-12-26T13:54:28.547Z,99201.06
2022-12-26T13:57:29.597Z,99204.53
2022-12-26T14:00:24.922Z,99206.22
2022-12-26T14:03:48.972Z,99170.03
2022-12-26T14:06:35.098Z,99197.59
2022-12-26T14:09:38.635Z,99198.47
2022-12-26T14:12:46.347Z,99199.28
2022-12-26T14:15:47.436Z,99191.56
2022-12-26T14:18:47.627Z,99193.25
2022-12-26T14:22:24.736Z,99201.94
2022-12-26T14:25:50.747Z,99204.50
2022-12-26T14:29:13.209Z,99199.31
2022-12-26T14:32:21.657Z,99200.22
2022-12-26T14:35:28.284Z,99197.66
2022-12-26T14:38:17.435Z,99195.88
2022-12-26T14:41:30.648Z,99195.91
2022-12-26T14:44:19.824Z,99206.25
2022-12-26T14:47:09.929Z,99193.34
2022-12-26T14:49:56.689Z,99201.97
2022-12-26T14:52:44.498Z,99182.16
2022-12-26T14:55:50.556Z,99179.56
2022-12-26T14:58:43.776Z,99183.03
2022-12-26T15:01:30.000Z,99177.84
2022-12-26T15:04:35.423Z,99182.16
2022-12-26T15:07:55.516Z,99195.97
2022-12-26T15:10:44.898Z,99182.13
2022-12-26T15:13:49.798Z,99191.59
2022-12-26T15:16:54.877Z,99183.81
2022-12-26T15:20:23.716Z,99191.56
2022-12-26T15:23:13.388Z,99209.69
2022-12-26T15:26:24.451Z,99182.88
2022-12-26T15:29:41.894Z,99216.56
2022-12-26T15:32:50.503Z,99207.09
2022-12-26T15:35:58.066Z,99201.03
2022-12-26T15:38:56.550Z,99204.53
2022-12-26T15:41:50.665Z,99194.13
2022-12-26T15:45:01.556Z,99204.53
2022-12-26T15:48:12.661Z,99213.97
2022-12-26T15:51:09.987Z,99213.13
2022-12-26T15:54:15.233Z,99216.56
2022-12-26T15:57:22.378Z,99209.63
2022-12-26T16:00:10.357Z,99207.06
2022-12-26T16:03:37.388Z,99203.59
2022-12-26T16:06:50.835Z,99209.69
2022-12-26T16:09:49.872Z,99201.03
2022-12-26T16:12:39.832Z,99215.72
2022-12-26T16:15:26.769Z,99217.47
2022-12-26T16:18:31.957Z,99228.66
2022-12-26T16:21:39.254Z,99228.66
2022-12-26T16:24:27.276Z,99242.50
2022-12-26T16:27:19.847Z,99239.88
2022-12-26T16:30:13.531Z,99228.66
2022-12-26T16:33:01.772Z,99244.16
2022-12-26T16:35:48.810Z,99217.34
2022-12-26T16:38:36.126Z,99242.38
2022-12-26T16:41:26.963Z,99236.34
2022-12-26T16:44:38.031Z,99219.03
2022-12-26T16:47:32.000Z,99230.19
2022-12-26T16:50:27.097Z,99244.00
2022-12-26T16:53:22.561Z,99243.13
2022-12-26T16:56:22.124Z,99262.97
2022-12-26T16:59:17.802Z,99219.69
2022-12-26T17:02:04.959Z,99253.41
2022-12-26T17:04:59.039Z,99240.41
2022-12-26T17:07:47.926Z,99259.38
2022-12-26T17:10:37.376Z,99254.19
2022-12-26T17:13:26.213Z,99251.59
2022-12-26T17:16:16.775Z,99257.53
2022-12-26T17:19:20.946Z,99265.25
2022-12-26T17:22:22.231Z,99268.63
2022-12-26T17:25:33.951Z,99284.06
2022-12-26T17:28:20.075Z,99275.47
2022-12-26T17:31:18.691Z,99265.88
2022-12-26T17:34:17.295Z,99279.72
2022-12-26T17:37:20.403Z,99270.25
2022-12-26T17:40:16.145Z,99268.50
2022-12-26T17:43:23.185Z,99251.28
2022-12-26T17:46:13.668Z,99270.34
2022-12-26T17:49:00.258Z,99266.09
2022-12-26T17:51:54.532Z,99265.16
2022-12-26T17:54:45.070Z,99273.81
2022-12-26T17:57:31.999Z,99261.63
2022-12-26T18:00:30.461Z,99277.25
2022-12-26T18:03:17.262Z,99286.66
2022-12-26T18:06:05.409Z,99280.59
2022-12-26T18:08:51.996Z,99304.81
2022-12-26T18:11:38.568Z,99280.63
2022-12-26T18:14:26.804Z,99312.63
2022-12-26T18:17:18.239Z,99311.75
2022-12-26T18:20:06.015Z,99328.97
2022-12-26T18:22:53.378Z,99324.53
2022-12-26T18:25:39.834Z,99319.31
2022-12-26T18:28:27.605Z,99343.47
2022-12-26T18:31:17.468Z,99371.00
2022-12-26T18:34:07.335Z,99361.41
2022-12-26T18:36:54.033Z,99365.72
2022-12-26T18:39:47.055Z,99354.53
2022-12-26T18:42:42.582Z,99338.88
2022-12-26T18:45:30.560Z,99357.13
2022-12-26T18:48:17.273Z,99325.13
2022-12-26T18:51:04.776Z,99348.34
2022-12-26T18:53:51.657Z,99342.88
2022-12-26T18:56:38.068Z,99367.00
2022-12-26T18:59:24.404Z,99351.31
2022-12-26T19:02:16.119Z,99396.31
2022-12-26T19:05:02.397Z,99411.72
2022-12-26T19:07:50.230Z,99420.28
2022-12-26T19:10:36.858Z,99423.59
2022-12-26T19:13:23.268Z,99435.53
2022-12-26T19:16:10.627Z,99421.81
2022-12-26T19:18:57.910Z,99454.44
2022-12-26T19:21:44.033Z,99450.69
2022-12-26T19:24:30.403Z,99455.63
2022-12-26T19:27:16.869Z,99465.59
2022-12-26T19:30:03.042Z,99453.41
2022-12-26T19:32:50.265Z,99466.28
2022-12-26T19:35:36.934Z,99475.56
2022-12-26T19:38:23.405Z,99470.47
2022-12-26T19:41:12.261Z,99466.28
2022-12-26T19:43:59.823Z,99466.16
2022-12-26T19:46:47.279Z,99442.66
2022-12-26T19:49:33.954Z,99485.84
2022-12-26T19:52:20.346Z,99479.75
2022-12-26T19:55:10.357Z,99485.66
2022-12-26T19:57:56.519Z,99502.75
2022-12-26T20:00:43.690Z,99508.56
2022-12-26T20:03:30.340Z,99512.00
2022-12-26T20:06:19.581Z,99521.50
2022-12-26T20:09:08.873Z,99534.31
2022-12-26T20:11:55.909Z,99529.03
2022-12-26T20:14:42.314Z,99531.50
2022-12-26T20:17:29.055Z,99541.16
2022-12-26T20:20:15.781Z,99551.53
2022-12-26T20:23:03.007Z,99551.34
2022-12-26T20:25:49.517Z,99560.19
2022-12-26T20:28:36.586Z,99570.50
2022-12-26T20:31:24.361Z,99569.50
2022-12-26T20:34:14.417Z,99561.03
2022-12-26T20:37:00.639Z,99583.22
2022-12-26T20:39:47.301Z,99574.22
2022-12-26T20:42:33.781Z,99557.41
2022-12-26T20:45:19.940Z,99592.78
2022-12-26T20:48:08.178Z,99614.44
2022-12-26T20:51:04.376Z,99621.47
2022-12-26T20:53:52.530Z,99627.50
2022-12-26T20:56:41.825Z,99646.44
2022-12-26T20:59:28.272Z,99643.06
2022-12-26T21:02:14.656Z,99653.53
2022-12-26T21:05:01.525Z,99648.28
2022-12-26T21:07:47.799Z,99670.06
2022-12-26T21:10:34.327Z,99677.84
2022-12-26T21:13:20.549Z,99659.66
2022-12-26T21:16:16.504Z,99697.78
2022-12-26T21:19:08.011Z,99700.31
2022-12-26T21:21:59.099Z,99717.28
2022-12-26T21:24:45.419Z,99723.47
2022-12-26T21:27:31.678Z,99730.34
2022-12-26T21:30:18.777Z,99730.25
2022-12-26T21:33:05.046Z,99715.50
2022-12-26T21:35:53.254Z,99741.53
2022-12-26T21:38:40.137Z,99751.78
2022-12-26T21:41:26.672Z,99756.94
2022-12-26T21:44:12.842Z,99755.31
2022-12-26T21:46:59.427Z,99759.41
2022-12-26T21:49:46.041Z,99755.13
2022-12-26T21:52:32.315Z,99760.97
2022-12-26T21:55:28.019Z,99764.22
2022-12-26T21:58:14.551Z,99763.56
2022-12-26T22:01:00.718Z,99768.53
2022-12-26T22:04:06.413Z,99771.13
2022-12-26T22:06:52.888Z,99783.97
2022-12-26T22:09:39.071Z,99793.34
2022-12-26T22:12:43.879Z,99777.53
2022-12-26T22:15:49.077Z,99775.13
2022-12-26T22:18:45.928Z,99809.38
2022-12-26T22:21:32.460Z,99817.16
2022-12-26T22:24:19.098Z,99806.53
2022-12-26T22:27:05.468Z,99820.53
2022-12-26T22:29:51.588Z,99822.00
2022-12-26T22:32:38.382Z,99826.34
2022-12-26T22:35:24.726Z,99822.84
2022-12-26T22:38:11.467Z,99831.47
2022-12-26T22:40:59.455Z,99833.13
2022-12-26T22:43:46.058Z,99820.72
2022-12-26T22:46:32.564Z,99842.47
2022-12-26T22:49:19.024Z,99837.13
2022-12-26T22:52:07.820Z,99832.84
2022-12-26T22:54:57.383Z,99850.75
2022-12-26T22:57:48.127Z,99855.94
2022-12-26T23:00:37.798Z,99858.47
2022-12-26T23:03:26.044Z,99854.97
2022-12-26T23:06:33.778Z,99832.84
2022-12-26T23:09:20.294Z,99870.09
2022-12-26T23:12:25.779Z,99879.41
2022-12-26T23:15:17.426Z,99875.59
2022-12-26T23:18:36.237Z,99880.44
2022-12-26T23:21:45.030Z,99870.59
2022-12-26T23:24:32.810Z,99895.34
2022-12-26T23:27:38.098Z,99896.88
2022-12-26T23:30:30.952Z,99907.78
2022-12-26T23:33:17.152Z,99900.13
2022-12-26T23:36:04.419Z,99910.31
2022-12-26T23:38:50.729Z,99907.28
2022-12-26T23:41:37.858Z,99917.56
2022-12-26T23:44:24.146Z,99929.28
2022-12-26T23:47:10.431Z,99930.03
2022-12-26T23:49:56.952Z,99898.31
2022-12-26T23:52:43.645Z,99905.13
2022-12-26T23:55:30.157Z,99924.72
2022-12-26T23:58:16.631Z,99956.28
